sensor_id;sensor_type;location;lat;lon;timestamp;P1;durP1;ratioP1;P2;durP2;ratioP2
31095;SDS011;17749;51.962;8.560;2022-07-09T05:00:40;19.95;;;13.05;;
31095;SDS011;17749;51.962;8.560;2022-07-09T05:03:08;24.13;;;13.35;;
31095;SDS011;17749;51.962;8.560;2022-07-09T05:05:35;22.98;;;13.15;;
31095;SDS011;17749;51.962;8.560;2022-07-09T05:08:10;25.80;;;14.00;;
31095;SDS011;17749;51.962;8.560;2022-07-09T05:10:37;19.40;;;12.00;;
31095;SDS011;17749;51.962;8.560;2022-07-09T05:13:04;27.15;;;12.10;;
31095;SDS011;17749;51.962;8.560;2022-07-09T05:15:31;29.95;;;13.27;;
31095;SDS011;17749;51.962;8.560;2022-07-09T05:17:59;21.48;;;13.10;;
31095;SDS011;17749;51.962;8.560;2022-07-09T05:20:26;28.85;;;13.18;;
31095;SDS011;17749;51.962;8.560;2022-07-09T05:22:53;21.67;;;12.45;;
31095;SDS011;17749;51.962;8.560;2022-07-09T05:25:20;18.10;;;12.30;;
31095;SDS011;17749;51.962;8.560;2022-07-09T05:27:46;19.95;;;12.30;;
31095;SDS011;17749;51.962;8.560;2022-07-09T05:30:13;18.30;;;11.20;;
31095;SDS011;17749;51.962;8.560;2022-07-09T05:32:45;17.48;;;10.55;;
31095;SDS011;17749;51.962;8.560;2022-07-09T05:35:12;17.77;;;11.00;;
31095;SDS011;17749;51.962;8.560;2022-07-09T05:37:42;13.13;;;10.10;;
31095;SDS011;17749;51.962;8.560;2022-07-09T05:40:10;22.50;;;11.13;;
31095;SDS011;17749;51.962;8.560;2022-07-09T05:42:38;22.40;;;10.48;;
31095;SDS011;17749;51.962;8.560;2022-07-09T05:45:05;15.50;;;10.30;;
31095;SDS011;17749;51.962;8.560;2022-07-09T05:47:32;13.27;;;9.70;;
31095;SDS011;17749;51.962;8.560;2022-07-09T05:49:59;18.35;;;10.43;;
31095;SDS011;17749;51.962;8.560;2022-07-09T05:52:26;15.23;;;9.00;;
31095;SDS011;17749;51.962;8.560;2022-07-09T05:54:52;14.88;;;9.40;;
31095;SDS011;17749;51.962;8.560;2022-07-09T05:57:19;22.33;;;10.10;;
31095;SDS011;17749;51.962;8.560;2022-07-09T05:59:46;18.40;;;10.32;;
31095;SDS011;17749;51.962;8.560;2022-07-09T06:02:13;18.30;;;10.57;;
31095;SDS011;17749;51.962;8.560;2022-07-09T06:04:39;20.48;;;8.80;;
31095;SDS011;17749;51.962;8.560;2022-07-09T06:07:06;19.90;;;11.23;;
31095;SDS011;17749;51.962;8.560;2022-07-09T06:09:32;15.77;;;10.60;;
31095;SDS011;17749;51.962;8.560;2022-07-09T06:11:59;16.45;;;9.80;;
31095;SDS011;17749;51.962;8.560;2022-07-09T06:14:26;18.27;;;11.05;;
31095;SDS011;17749;51.962;8.560;2022-07-09T06:16:53;14.98;;;9.40;;
31095;SDS011;17749;51.962;8.560;2022-07-09T06:19:22;12.03;;;8.67;;
31095;SDS011;17749;51.962;8.560;2022-07-09T06:21:49;14.55;;;9.90;;
31095;SDS011;17749;51.962;8.560;2022-07-09T06:24:16;16.77;;;8.15;;
31095;SDS011;17749;51.962;8.560;2022-07-09T06:26:42;14.13;;;9.70;;
31095;SDS011;17749;51.962;8.560;2022-07-09T06:29:09;11.25;;;7.82;;
31095;SDS011;17749;51.962;8.560;2022-07-09T06:31:36;17.13;;;9.38;;
31095;SDS011;17749;51.962;8.560;2022-07-09T06:34:02;11.45;;;7.45;;
31095;SDS011;17749;51.962;8.560;2022-07-09T06:36:29;11.25;;;7.57;;
31095;SDS011;17749;51.962;8.560;2022-07-09T06:38:56;11.85;;;7.53;;
31095;SDS011;17749;51.962;8.560;2022-07-09T06:41:41;16.40;;;7.07;;
31095;SDS011;17749;51.962;8.560;2022-07-09T06:44:08;9.77;;;6.68;;
31095;SDS011;17749;51.962;8.560;2022-07-09T06:46:34;9.90;;;6.32;;
31095;SDS011;17749;51.962;8.560;2022-07-09T06:49:02;10.65;;;6.90;;
31095;SDS011;17749;51.962;8.560;2022-07-09T06:51:29;8.48;;;6.25;;
31095;SDS011;17749;51.962;8.560;2022-07-09T06:53:55;6.63;;;4.93;;
31095;SDS011;17749;51.962;8.560;2022-07-09T06:56:22;10.60;;;6.05;;
31095;SDS011;17749;51.962;8.560;2022-07-09T06:58:49;7.40;;;5.15;;
31095;SDS011;17749;51.962;8.560;2022-07-09T07:01:16;10.05;;;5.60;;
31095;SDS011;17749;51.962;8.560;2022-07-09T07:03:42;7.55;;;5.38;;
31095;SDS011;17749;51.962;8.560;2022-07-09T07:06:09;6.53;;;5.03;;
31095;SDS011;17749;51.962;8.560;2022-07-09T07:08:36;9.90;;;5.80;;
31095;SDS011;17749;51.962;8.560;2022-07-09T07:11:03;7.90;;;5.13;;
31095;SDS011;17749;51.962;8.560;2022-07-09T07:13:30;6.95;;;4.10;;
31095;SDS011;17749;51.962;8.560;2022-07-09T07:15:57;8.52;;;4.57;;
31095;SDS011;17749;51.962;8.560;2022-07-09T07:18:24;7.88;;;5.07;;
31095;SDS011;17749;51.962;8.560;2022-07-09T07:20:50;6.15;;;4.10;;
31095;SDS011;17749;51.962;8.560;2022-07-09T07:23:17;8.57;;;4.50;;
31095;SDS011;17749;51.962;8.560;2022-07-09T07:25:44;6.43;;;4.05;;
31095;SDS011;17749;51.962;8.560;2022-07-09T07:28:10;5.15;;;3.80;;
31095;SDS011;17749;51.962;8.560;2022-07-09T07:30:37;7.00;;;3.70;;
31095;SDS011;17749;51.962;8.560;2022-07-09T07:33:04;4.55;;;3.80;;
31095;SDS011;17749;51.962;8.560;2022-07-09T07:35:31;6.13;;;3.60;;
31095;SDS011;17749;51.962;8.560;2022-07-09T07:37:57;8.05;;;3.80;;
31095;SDS011;17749;51.962;8.560;2022-07-09T07:40:25;7.22;;;3.83;;
31095;SDS011;17749;51.962;8.560;2022-07-09T07:42:52;5.18;;;3.53;;
31095;SDS011;17749;51.962;8.560;2022-07-09T07:45:19;5.47;;;3.40;;
31095;SDS011;17749;51.962;8.560;2022-07-09T07:47:46;6.25;;;3.58;;
31095;SDS011;17749;51.962;8.560;2022-07-09T07:50:13;6.70;;;3.85;;
31095;SDS011;17749;51.962;8.560;2022-07-09T07:52:49;8.00;;;3.00;;
31095;SDS011;17749;51.962;8.560;2022-07-09T07:55:17;4.65;;;2.78;;
31095;SDS011;17749;51.962;8.560;2022-07-09T07:57:44;4.65;;;3.40;;
31095;SDS011;17749;51.962;8.560;2022-07-09T08:00:11;4.40;;;2.70;;
31095;SDS011;17749;51.962;8.560;2022-07-09T08:02:38;4.70;;;2.45;;
31095;SDS011;17749;51.962;8.560;2022-07-09T08:05:05;3.78;;;2.53;;
31095;SDS011;17749;51.962;8.560;2022-07-09T08:07:32;4.78;;;2.65;;
31095;SDS011;17749;51.962;8.560;2022-07-09T08:09:59;4.20;;;2.40;;
31095;SDS011;17749;51.962;8.560;2022-07-09T08:12:26;5.53;;;2.97;;
31095;SDS011;17749;51.962;8.560;2022-07-09T08:14:52;4.82;;;2.33;;
31095;SDS011;17749;51.962;8.560;2022-07-09T08:17:20;3.67;;;2.38;;
31095;SDS011;17749;51.962;8.560;2022-07-09T08:19:46;3.97;;;2.13;;
31095;SDS011;17749;51.962;8.560;2022-07-09T08:22:13;3.00;;;2.22;;
31095;SDS011;17749;51.962;8.560;2022-07-09T08:24:39;6.32;;;2.15;;
31095;SDS011;17749;51.962;8.560;2022-07-09T08:27:06;4.45;;;2.75;;
31095;SDS011;17749;51.962;8.560;2022-07-09T08:29:33;6.55;;;2.42;;
31095;SDS011;17749;51.962;8.560;2022-07-09T08:31:59;4.30;;;2.03;;
31095;SDS011;17749;51.962;8.560;2022-07-09T08:34:26;3.78;;;2.05;;
31095;SDS011;17749;51.962;8.560;2022-07-09T08:36:53;3.15;;;1.90;;
31095;SDS011;17749;51.962;8.560;2022-07-09T08:39:20;4.22;;;2.22;;
31095;SDS011;17749;51.962;8.560;2022-07-09T08:41:46;3.80;;;1.90;;
31095;SDS011;17749;51.962;8.560;2022-07-09T08:44:13;2.97;;;2.30;;
31095;SDS011;17749;51.962;8.560;2022-07-09T08:46:43;3.72;;;1.98;;
31095;SDS011;17749;51.962;8.560;2022-07-09T08:49:10;2.20;;;1.70;;
31095;SDS011;17749;51.962;8.560;2022-07-09T08:51:41;2.33;;;1.65;;
31095;SDS011;17749;51.962;8.560;2022-07-09T08:54:08;3.00;;;2.20;;
31095;SDS011;17749;51.962;8.560;2022-07-09T08:56:35;6.50;;;2.10;;
31095;SDS011;17749;51.962;8.560;2022-07-09T08:59:02;3.13;;;1.73;;
31095;SDS011;17749;51.962;8.560;2022-07-09T09:01:28;6.25;;;2.00;;
31095;SDS011;17749;51.962;8.560;2022-07-09T09:03:55;4.82;;;1.90;;
31095;SDS011;17749;51.962;8.560;2022-07-09T09:06:22;4.80;;;1.45;;
31095;SDS011;17749;51.962;8.560;2022-07-09T09:08:53;3.17;;;1.50;;
31095;SDS011;17749;51.962;8.560;2022-07-09T09:11:21;3.55;;;1.70;;
31095;SDS011;17749;51.962;8.560;2022-07-09T09:13:50;2.60;;;1.45;;
31095;SDS011;17749;51.962;8.560;2022-07-09T09:16:18;4.88;;;2.17;;
31095;SDS011;17749;51.962;8.560;2022-07-09T09:18:46;3.33;;;1.95;;
31095;SDS011;17749;51.962;8.560;2022-07-09T09:21:15;3.47;;;2.10;;
31095;SDS011;17749;51.962;8.560;2022-07-09T09:26:18;3.35;;;1.40;;
31095;SDS011;17749;51.962;8.560;2022-07-09T09:31:26;5.38;;;2.28;;
31095;SDS011;17749;51.962;8.560;2022-07-09T09:33:55;3.72;;;1.88;;
31095;SDS011;17749;51.962;8.560;2022-07-09T09:36:27;7.78;;;1.90;;
31095;SDS011;17749;51.962;8.560;2022-07-09T09:41:35;2.55;;;1.40;;
31095;SDS011;17749;51.962;8.560;2022-07-09T09:44:04;3.40;;;1.70;;
31095;SDS011;17749;51.962;8.560;2022-07-09T09:46:38;4.40;;;2.30;;
31095;SDS011;17749;51.962;8.560;2022-07-09T09:49:06;4.20;;;2.25;;
31095;SDS011;17749;51.962;8.560;2022-07-09T09:51:35;3.40;;;1.83;;
31095;SDS011;17749;51.962;8.560;2022-07-09T09:56:31;2.78;;;1.80;;
31095;SDS011;17749;51.962;8.560;2022-07-09T09:58:59;2.15;;;1.77;;
31095;SDS011;17749;51.962;8.560;2022-07-09T10:01:27;2.03;;;1.40;;
31095;SDS011;17749;51.962;8.560;2022-07-09T10:03:55;3.67;;;2.00;;
31095;SDS011;17749;51.962;8.560;2022-07-09T10:06:23;3.75;;;2.17;;
31095;SDS011;17749;51.962;8.560;2022-07-09T10:08:51;2.88;;;1.58;;
31095;SDS011;17749;51.962;8.560;2022-07-09T10:11:18;3.58;;;1.92;;
31095;SDS011;17749;51.962;8.560;2022-07-09T10:13:50;3.28;;;1.17;;
31095;SDS011;17749;51.962;8.560;2022-07-09T10:16:34;2.47;;;1.40;;
31095;SDS011;17749;51.962;8.560;2022-07-09T10:19:05;3.22;;;1.35;;
31095;SDS011;17749;51.962;8.560;2022-07-09T10:24:08;4.10;;;1.30;;
31095;SDS011;17749;51.962;8.560;2022-07-09T10:29:27;2.15;;;1.42;;
31095;SDS011;17749;51.962;8.560;2022-07-09T10:31:55;2.63;;;1.30;;
31095;SDS011;17749;51.962;8.560;2022-07-09T10:36:56;4.07;;;1.60;;
31095;SDS011;17749;51.962;8.560;2022-07-09T10:39:27;3.28;;;1.20;;
31095;SDS011;17749;51.962;8.560;2022-07-09T10:42:00;2.30;;;1.40;;
31095;SDS011;17749;51.962;8.560;2022-07-09T10:44:35;3.13;;;1.10;;
31095;SDS011;17749;51.962;8.560;2022-07-09T10:47:04;1.50;;;1.08;;
31095;SDS011;17749;51.962;8.560;2022-07-09T10:49:38;1.83;;;1.10;;
31095;SDS011;17749;51.962;8.560;2022-07-09T10:52:05;2.65;;;1.30;;
31095;SDS011;17749;51.962;8.560;2022-07-09T10:54:33;1.85;;;1.02;;
31095;SDS011;17749;51.962;8.560;2022-07-09T10:57:00;2.70;;;1.40;;
31095;SDS011;17749;51.962;8.560;2022-07-09T10:59:27;5.10;;;1.20;;
31095;SDS011;17749;51.962;8.560;2022-07-09T11:01:54;1.67;;;1.15;;
31095;SDS011;17749;51.962;8.560;2022-07-09T11:04:28;1.95;;;1.15;;
31095;SDS011;17749;51.962;8.560;2022-07-09T11:06:58;3.80;;;1.58;;
31095;SDS011;17749;51.962;8.560;2022-07-09T11:09:25;3.72;;;1.00;;
31095;SDS011;17749;51.962;8.560;2022-07-09T11:11:56;2.90;;;0.98;;
31095;SDS011;17749;51.962;8.560;2022-07-09T11:14:23;2.83;;;1.20;;
31095;SDS011;17749;51.962;8.560;2022-07-09T11:16:56;1.77;;;1.10;;
31095;SDS011;17749;51.962;8.560;2022-07-09T11:19:25;2.08;;;1.33;;
31095;SDS011;17749;51.962;8.560;2022-07-09T11:22:00;2.13;;;1.33;;
31095;SDS011;17749;51.962;8.560;2022-07-09T11:24:28;4.22;;;1.73;;
31095;SDS011;17749;51.962;8.560;2022-07-09T11:26:55;1.58;;;1.10;;
31095;SDS011;17749;51.962;8.560;2022-07-09T11:29:30;1.85;;;1.02;;
31095;SDS011;17749;51.962;8.560;2022-07-09T11:31:57;4.45;;;1.30;;
31095;SDS011;17749;51.962;8.560;2022-07-09T11:34:24;3.15;;;1.10;;
31095;SDS011;17749;51.962;8.560;2022-07-09T11:36:51;2.75;;;1.27;;
31095;SDS011;17749;51.962;8.560;2022-07-09T11:39:29;2.30;;;1.30;;
31095;SDS011;17749;51.962;8.560;2022-07-09T11:41:57;2.53;;;1.05;;
31095;SDS011;17749;51.962;8.560;2022-07-09T11:44:29;3.08;;;1.25;;
31095;SDS011;17749;51.962;8.560;2022-07-09T11:47:00;1.73;;;1.10;;
31095;SDS011;17749;51.962;8.560;2022-07-09T11:52:00;1.85;;;1.20;;
31095;SDS011;17749;51.962;8.560;2022-07-09T11:54:28;1.85;;;1.10;;
31095;SDS011;17749;51.962;8.560;2022-07-09T11:56:55;1.65;;;1.10;;
31095;SDS011;17749;51.962;8.560;2022-07-09T11:59:29;2.72;;;1.05;;
31095;SDS011;17749;51.962;8.560;2022-07-09T12:02:00;4.93;;;1.13;;
31095;SDS011;17749;51.962;8.560;2022-07-09T12:04:29;1.63;;;1.00;;
31095;SDS011;17749;51.962;8.560;2022-07-09T12:06:57;1.67;;;1.10;;
31095;SDS011;17749;51.962;8.560;2022-07-09T12:09:27;2.17;;;1.00;;
31095;SDS011;17749;51.962;8.560;2022-07-09T12:11:58;2.10;;;1.05;;
31095;SDS011;17749;51.962;8.560;2022-07-09T12:14:26;2.00;;;1.00;;
31095;SDS011;17749;51.962;8.560;2022-07-09T12:16:53;2.65;;;0.93;;
31095;SDS011;17749;51.962;8.560;2022-07-09T12:19:19;1.83;;;1.15;;
31095;SDS011;17749;51.962;8.560;2022-07-09T12:21:46;1.77;;;1.08;;
31095;SDS011;17749;51.962;8.560;2022-07-09T12:24:16;3.83;;;1.30;;
31095;SDS011;17749;51.962;8.560;2022-07-09T12:26:45;2.00;;;1.10;;
31095;SDS011;17749;51.962;8.560;2022-07-09T12:29:31;1.65;;;0.98;;
31095;SDS011;17749;51.962;8.560;2022-07-09T12:31:58;2.03;;;0.90;;
31095;SDS011;17749;51.962;8.560;2022-07-09T12:34:24;2.17;;;1.10;;
31095;SDS011;17749;51.962;8.560;2022-07-09T12:36:54;3.70;;;1.10;;
31095;SDS011;17749;51.962;8.560;2022-07-09T12:39:25;1.02;;;0.90;;
31095;SDS011;17749;51.962;8.560;2022-07-09T12:41:51;4.68;;;0.90;;
31095;SDS011;17749;51.962;8.560;2022-07-09T12:44:18;1.38;;;0.90;;
31095;SDS011;17749;51.962;8.560;2022-07-09T12:46:45;1.95;;;1.13;;
31095;SDS011;17749;51.962;8.560;2022-07-09T12:49:12;2.28;;;1.08;;
31095;SDS011;17749;51.962;8.560;2022-07-09T12:51:38;1.42;;;0.90;;
31095;SDS011;17749;51.962;8.560;2022-07-09T12:54:05;2.03;;;0.90;;
31095;SDS011;17749;51.962;8.560;2022-07-09T12:56:32;1.30;;;0.90;;
31095;SDS011;17749;51.962;8.560;2022-07-09T12:59:18;2.53;;;1.00;;
31095;SDS011;17749;51.962;8.560;2022-07-09T13:01:45;1.17;;;0.90;;
31095;SDS011;17749;51.962;8.560;2022-07-09T13:04:12;1.55;;;0.90;;
31095;SDS011;17749;51.962;8.560;2022-07-09T13:06:39;1.98;;;0.95;;
31095;SDS011;17749;51.962;8.560;2022-07-09T13:09:08;1.98;;;0.90;;
31095;SDS011;17749;51.962;8.560;2022-07-09T13:11:36;2.00;;;1.20;;
31095;SDS011;17749;51.962;8.560;2022-07-09T13:14:03;2.28;;;0.90;;
31095;SDS011;17749;51.962;8.560;2022-07-09T13:16:30;2.17;;;0.93;;
31095;SDS011;17749;51.962;8.560;2022-07-09T13:18:57;1.40;;;0.98;;
31095;SDS011;17749;51.962;8.560;2022-07-09T13:21:24;3.38;;;1.10;;
31095;SDS011;17749;51.962;8.560;2022-07-09T13:23:50;2.42;;;0.85;;
31095;SDS011;17749;51.962;8.560;2022-07-09T13:26:17;1.15;;;0.80;;
31095;SDS011;17749;51.962;8.560;2022-07-09T13:28:44;2.20;;;1.10;;
31095;SDS011;17749;51.962;8.560;2022-07-09T13:31:11;1.83;;;1.00;;
31095;SDS011;17749;51.962;8.560;2022-07-09T13:33:38;4.22;;;1.00;;
31095;SDS011;17749;51.962;8.560;2022-07-09T13:36:04;2.50;;;0.68;;
31095;SDS011;17749;51.962;8.560;2022-07-09T13:38:32;0.85;;;0.75;;
31095;SDS011;17749;51.962;8.560;2022-07-09T13:41:00;3.22;;;0.80;;
31095;SDS011;17749;51.962;8.560;2022-07-09T13:43:27;3.85;;;1.00;;
31095;SDS011;17749;51.962;8.560;2022-07-09T13:46:02;2.47;;;1.00;;
31095;SDS011;17749;51.962;8.560;2022-07-09T13:48:29;1.40;;;0.77;;
31095;SDS011;17749;51.962;8.560;2022-07-09T13:50:55;1.95;;;0.90;;
31095;SDS011;17749;51.962;8.560;2022-07-09T13:53:22;1.30;;;0.93;;
31095;SDS011;17749;51.962;8.560;2022-07-09T13:55:49;3.05;;;1.00;;
31095;SDS011;17749;51.962;8.560;2022-07-09T13:58:16;3.08;;;1.17;;
31095;SDS011;17749;51.962;8.560;2022-07-09T14:00:43;2.45;;;1.20;;
31095;SDS011;17749;51.962;8.560;2022-07-09T14:03:09;1.60;;;1.00;;
31095;SDS011;17749;51.962;8.560;2022-07-09T14:05:36;2.15;;;0.98;;
31095;SDS011;17749;51.962;8.560;2022-07-09T14:08:04;1.63;;;0.98;;
31095;SDS011;17749;51.962;8.560;2022-07-09T14:10:32;1.38;;;0.90;;
31095;SDS011;17749;51.962;8.560;2022-07-09T14:13:00;1.93;;;0.73;;
31095;SDS011;17749;51.962;8.560;2022-07-09T14:15:27;3.03;;;0.73;;
31095;SDS011;17749;51.962;8.560;2022-07-09T14:17:54;1.13;;;0.82;;
31095;SDS011;17749;51.962;8.560;2022-07-09T14:20:21;3.92;;;1.02;;
31095;SDS011;17749;51.962;8.560;2022-07-09T14:22:47;2.47;;;0.90;;
31095;SDS011;17749;51.962;8.560;2022-07-09T14:25:14;1.58;;;1.13;;
31095;SDS011;17749;51.962;8.560;2022-07-09T14:27:42;4.28;;;1.20;;
31095;SDS011;17749;51.962;8.560;2022-07-09T14:30:08;2.63;;;1.33;;
31095;SDS011;17749;51.962;8.560;2022-07-09T14:32:36;12.43;;;1.63;;
31095;SDS011;17749;51.962;8.560;2022-07-09T14:35:02;1.63;;;1.23;;
31095;SDS011;17749;51.962;8.560;2022-07-09T14:37:32;3.95;;;1.00;;
31095;SDS011;17749;51.962;8.560;2022-07-09T14:39:59;1.63;;;1.02;;
31095;SDS011;17749;51.962;8.560;2022-07-09T14:42:25;2.22;;;1.10;;
31095;SDS011;17749;51.962;8.560;2022-07-09T14:44:52;5.68;;;1.05;;
31095;SDS011;17749;51.962;8.560;2022-07-09T14:47:19;2.42;;;1.10;;
31095;SDS011;17749;51.962;8.560;2022-07-09T14:49:46;1.15;;;0.90;;
31095;SDS011;17749;51.962;8.560;2022-07-09T14:52:17;1.67;;;0.80;;
31095;SDS011;17749;51.962;8.560;2022-07-09T14:54:44;1.23;;;0.88;;
31095;SDS011;17749;51.962;8.560;2022-07-09T14:57:10;3.90;;;1.15;;
31095;SDS011;17749;51.962;8.560;2022-07-09T14:59:37;2.13;;;1.00;;
31095;SDS011;17749;51.962;8.560;2022-07-09T15:02:08;1.50;;;1.00;;
31095;SDS011;17749;51.962;8.560;2022-07-09T15:04:35;5.68;;;1.20;;
31095;SDS011;17749;51.962;8.560;2022-07-09T15:07:02;1.70;;;0.77;;
31095;SDS011;17749;51.962;8.560;2022-07-09T15:09:29;2.50;;;0.60;;
31095;SDS011;17749;51.962;8.560;2022-07-09T15:11:56;1.85;;;1.00;;
31095;SDS011;17749;51.962;8.560;2022-07-09T15:14:23;1.77;;;1.10;;
31095;SDS011;17749;51.962;8.560;2022-07-09T15:16:49;2.45;;;1.20;;
31095;SDS011;17749;51.962;8.560;2022-07-09T15:19:16;2.15;;;1.10;;
31095;SDS011;17749;51.962;8.560;2022-07-09T15:21:43;3.50;;;1.35;;
31095;SDS011;17749;51.962;8.560;2022-07-09T15:24:10;2.22;;;0.80;;
31095;SDS011;17749;51.962;8.560;2022-07-09T15:26:37;2.13;;;1.15;;
31095;SDS011;17749;51.962;8.560;2022-07-09T15:29:04;3.00;;;1.00;;
31095;SDS011;17749;51.962;8.560;2022-07-09T15:31:31;1.15;;;0.70;;
31095;SDS011;17749;51.962;8.560;2022-07-09T15:33:57;2.58;;;0.95;;
31095;SDS011;17749;51.962;8.560;2022-07-09T15:36:24;4.32;;;0.88;;
31095;SDS011;17749;51.962;8.560;2022-07-09T15:38:51;3.38;;;0.93;;
31095;SDS011;17749;51.962;8.560;2022-07-09T15:41:17;4.20;;;1.02;;
31095;SDS011;17749;51.962;8.560;2022-07-09T15:43:44;3.65;;;1.25;;
31095;SDS011;17749;51.962;8.560;2022-07-09T15:46:11;3.33;;;1.30;;
31095;SDS011;17749;51.962;8.560;2022-07-09T15:48:38;4.95;;;1.30;;
31095;SDS011;17749;51.962;8.560;2022-07-09T15:51:06;5.93;;;1.45;;
31095;SDS011;17749;51.962;8.560;2022-07-09T15:53:33;3.97;;;1.48;;
31095;SDS011;17749;51.962;8.560;2022-07-09T15:55:59;2.92;;;1.25;;
31095;SDS011;17749;51.962;8.560;2022-07-09T15:58:26;4.57;;;1.50;;
31095;SDS011;17749;51.962;8.560;2022-07-09T16:00:54;2.90;;;1.10;;
31095;SDS011;17749;51.962;8.560;2022-07-09T16:03:21;2.90;;;1.35;;
31095;SDS011;17749;51.962;8.560;2022-07-09T16:05:47;4.25;;;1.30;;
31095;SDS011;17749;51.962;8.560;2022-07-09T16:08:14;2.20;;;1.30;;
31095;SDS011;17749;51.962;8.560;2022-07-09T16:10:41;5.10;;;1.30;;
31095;SDS011;17749;51.962;8.560;2022-07-09T16:13:08;5.10;;;1.45;;
31095;SDS011;17749;51.962;8.560;2022-07-09T16:15:35;6.68;;;1.27;;
31095;SDS011;17749;51.962;8.560;2022-07-09T16:18:02;2.33;;;1.13;;
31095;SDS011;17749;51.962;8.560;2022-07-09T16:20:28;2.55;;;1.50;;
31095;SDS011;17749;51.962;8.560;2022-07-09T16:22:55;5.85;;;1.33;;
31095;SDS011;17749;51.962;8.560;2022-07-09T16:25:22;3.95;;;1.52;;
31095;SDS011;17749;51.962;8.560;2022-07-09T16:27:49;4.72;;;1.45;;
31095;SDS011;17749;51.962;8.560;2022-07-09T16:30:16;5.78;;;1.50;;
31095;SDS011;17749;51.962;8.560;2022-07-09T16:32:43;5.78;;;1.27;;
31095;SDS011;17749;51.962;8.560;2022-07-09T16:35:10;7.00;;;1.80;;
31095;SDS011;17749;51.962;8.560;2022-07-09T16:37:37;5.65;;;1.60;;
31095;SDS011;17749;51.962;8.560;2022-07-09T16:40:04;4.15;;;1.40;;
31095;SDS011;17749;51.962;8.560;2022-07-09T16:42:32;4.90;;;1.60;;
31095;SDS011;17749;51.962;8.560;2022-07-09T16:44:59;2.38;;;1.30;;
31095;SDS011;17749;51.962;8.560;2022-07-09T16:47:26;7.28;;;1.38;;
31095;SDS011;17749;51.962;8.560;2022-07-09T16:49:53;7.65;;;1.10;;
31095;SDS011;17749;51.962;8.560;2022-07-09T16:52:35;5.10;;;1.58;;
31095;SDS011;17749;51.962;8.560;2022-07-09T16:55:02;4.65;;;1.33;;
31095;SDS011;17749;51.962;8.560;2022-07-09T16:57:29;3.88;;;1.45;;
31095;SDS011;17749;51.962;8.560;2022-07-09T16:59:56;3.13;;;1.40;;
31095;SDS011;17749;51.962;8.560;2022-07-09T17:02:40;4.90;;;1.10;;
31095;SDS011;17749;51.962;8.560;2022-07-09T17:05:11;3.88;;;1.13;;
31095;SDS011;17749;51.962;8.560;2022-07-09T17:07:39;3.40;;;1.15;;
31095;SDS011;17749;51.962;8.560;2022-07-09T17:10:07;7.07;;;1.42;;
31095;SDS011;17749;51.962;8.560;2022-07-09T17:12:35;1.52;;;1.00;;
31095;SDS011;17749;51.962;8.560;2022-07-09T17:15:06;6.63;;;1.52;;
31095;SDS011;17749;51.962;8.560;2022-07-09T17:17:34;4.68;;;1.27;;
31095;SDS011;17749;51.962;8.560;2022-07-09T17:20:01;3.97;;;1.10;;
31095;SDS011;17749;51.962;8.560;2022-07-09T17:22:28;3.88;;;1.08;;
31095;SDS011;17749;51.962;8.560;2022-07-09T17:24:55;3.97;;;1.20;;
31095;SDS011;17749;51.962;8.560;2022-07-09T17:27:21;2.38;;;0.98;;
31095;SDS011;17749;51.962;8.560;2022-07-09T17:29:48;5.32;;;1.20;;
31095;SDS011;17749;51.962;8.560;2022-07-09T17:32:16;2.70;;;1.00;;
31095;SDS011;17749;51.962;8.560;2022-07-09T17:34:43;3.80;;;1.27;;
31095;SDS011;17749;51.962;8.560;2022-07-09T17:37:10;5.97;;;1.08;;
31095;SDS011;17749;51.962;8.560;2022-07-09T17:39:36;2.78;;;1.20;;
31095;SDS011;17749;51.962;8.560;2022-07-09T17:42:03;6.80;;;1.13;;
31095;SDS011;17749;51.962;8.560;2022-07-09T17:44:30;4.38;;;1.10;;
31095;SDS011;17749;51.962;8.560;2022-07-09T17:46:57;3.40;;;1.05;;
31095;SDS011;17749;51.962;8.560;2022-07-09T17:49:24;4.30;;;1.35;;
31095;SDS011;17749;51.962;8.560;2022-07-09T17:51:50;5.00;;;1.50;;
31095;SDS011;17749;51.962;8.560;2022-07-09T17:54:17;5.47;;;1.30;;
31095;SDS011;17749;51.962;8.560;2022-07-09T17:56:44;6.25;;;1.40;;
31095;SDS011;17749;51.962;8.560;2022-07-09T17:59:10;1.75;;;0.90;;
31095;SDS011;17749;51.962;8.560;2022-07-09T18:01:38;2.83;;;1.00;;
31095;SDS011;17749;51.962;8.560;2022-07-09T18:04:05;2.67;;;1.20;;
31095;SDS011;17749;51.962;8.560;2022-07-09T18:06:32;3.85;;;1.60;;
31095;SDS011;17749;51.962;8.560;2022-07-09T18:08:58;2.63;;;0.90;;
31095;SDS011;17749;51.962;8.560;2022-07-09T18:11:25;5.72;;;1.10;;
31095;SDS011;17749;51.962;8.560;2022-07-09T18:13:51;3.47;;;1.02;;
31095;SDS011;17749;51.962;8.560;2022-07-09T18:16:18;1.23;;;0.80;;
31095;SDS011;17749;51.962;8.560;2022-07-09T18:18:45;3.03;;;0.88;;
31095;SDS011;17749;51.962;8.560;2022-07-09T18:21:12;3.08;;;0.88;;
31095;SDS011;17749;51.962;8.560;2022-07-09T18:23:39;4.07;;;1.10;;
31095;SDS011;17749;51.962;8.560;2022-07-09T18:26:07;1.75;;;0.82;;
31095;SDS011;17749;51.962;8.560;2022-07-09T18:28:34;3.90;;;1.40;;
31095;SDS011;17749;51.962;8.560;2022-07-09T18:31:01;4.10;;;1.20;;
31095;SDS011;17749;51.962;8.560;2022-07-09T18:33:28;4.30;;;1.00;;
31095;SDS011;17749;51.962;8.560;2022-07-09T18:35:54;2.53;;;0.90;;
31095;SDS011;17749;51.962;8.560;2022-07-09T18:38:21;7.60;;;1.17;;
31095;SDS011;17749;51.962;8.560;2022-07-09T18:40:48;2.55;;;1.05;;
31095;SDS011;17749;51.962;8.560;2022-07-09T18:43:15;5.05;;;0.88;;
31095;SDS011;17749;51.962;8.560;2022-07-09T18:45:41;4.25;;;1.23;;
31095;SDS011;17749;51.962;8.560;2022-07-09T18:48:08;1.67;;;0.90;;
31095;SDS011;17749;51.962;8.560;2022-07-09T18:50:35;5.85;;;1.45;;
31095;SDS011;17749;51.962;8.560;2022-07-09T18:53:02;3.65;;;1.23;;
31095;SDS011;17749;51.962;8.560;2022-07-09T18:55:29;1.83;;;0.80;;
31095;SDS011;17749;51.962;8.560;2022-07-09T18:57:56;4.82;;;0.93;;
31095;SDS011;17749;51.962;8.560;2022-07-09T19:00:28;5.22;;;1.63;;
31095;SDS011;17749;51.962;8.560;2022-07-09T19:02:56;4.83;;;0.93;;
31095;SDS011;17749;51.962;8.560;2022-07-09T19:05:23;3.75;;;0.75;;
31095;SDS011;17749;51.962;8.560;2022-07-09T19:07:50;2.85;;;1.13;;
31095;SDS011;17749;51.962;8.560;2022-07-09T19:10:17;2.25;;;1.00;;
31095;SDS011;17749;51.962;8.560;2022-07-09T19:12:43;2.63;;;0.88;;
31095;SDS011;17749;51.962;8.560;2022-07-09T19:15:10;2.40;;;0.98;;
31095;SDS011;17749;51.962;8.560;2022-07-09T19:17:37;3.80;;;0.90;;
31095;SDS011;17749;51.962;8.560;2022-07-09T19:20:04;3.75;;;1.10;;
31095;SDS011;17749;51.962;8.560;2022-07-09T19:22:31;4.00;;;1.20;;
31095;SDS011;17749;51.962;8.560;2022-07-09T19:24:58;2.50;;;1.10;;
31095;SDS011;17749;51.962;8.560;2022-07-09T19:27:25;6.18;;;1.60;;
31095;SDS011;17749;51.962;8.560;2022-07-09T19:29:51;3.80;;;1.00;;
31095;SDS011;17749;51.962;8.560;2022-07-09T19:32:18;3.22;;;1.20;;
31095;SDS011;17749;51.962;8.560;2022-07-09T19:35:03;3.80;;;1.02;;
31095;SDS011;17749;51.962;8.560;2022-07-09T19:37:30;5.03;;;1.52;;
31095;SDS011;17749;51.962;8.560;2022-07-09T19:39:58;3.15;;;0.90;;
31095;SDS011;17749;51.962;8.560;2022-07-09T19:42:25;3.72;;;1.10;;
31095;SDS011;17749;51.962;8.560;2022-07-09T19:44:51;1.65;;;0.70;;
31095;SDS011;17749;51.962;8.560;2022-07-09T19:47:18;3.33;;;1.00;;
31095;SDS011;17749;51.962;8.560;2022-07-09T19:49:45;3.72;;;1.00;;
31095;SDS011;17749;51.962;8.560;2022-07-09T19:52:12;1.88;;;0.88;;
31095;SDS011;17749;51.962;8.560;2022-07-09T19:54:38;4.18;;;1.00;;
31095;SDS011;17749;51.962;8.560;2022-07-09T19:57:05;5.57;;;0.90;;
31095;SDS011;17749;51.962;8.560;2022-07-09T19:59:32;3.13;;;0.90;;
31095;SDS011;17749;51.962;8.560;2022-07-09T20:01:59;1.85;;;0.82;;
31095;SDS011;17749;51.962;8.560;2022-07-09T20:04:26;2.08;;;0.90;;
31095;SDS011;17749;51.962;8.560;2022-07-09T20:06:53;2.33;;;0.75;;
31095;SDS011;17749;51.962;8.560;2022-07-09T20:09:19;1.98;;;0.85;;